sensor_id;sensor_type;location;lat;lon;timestamp;P1;durP1;ratioP1;P2;durP2;ratioP2
50379;SDS011;37474;59.468;18.040;2023-08-06T00:01:24;12.90;;;5.53;;
50379;SDS011;37474;59.468;18.040;2023-08-06T00:03:53;9.77;;;5.63;;
50379;SDS011;37474;59.468;18.040;2023-08-06T00:06:22;10.07;;;5.27;;
50379;SDS011;37474;59.468;18.040;2023-08-06T00:08:50;9.50;;;5.33;;
50379;SDS011;37474;59.468;18.040;2023-08-06T00:11:20;9.63;;;5.17;;
50379;SDS011;37474;59.468;18.040;2023-08-06T00:13:49;12.57;;;5.22;;
50379;SDS011;37474;59.468;18.040;2023-08-06T00:16:17;13.53;;;5.77;;
50379;SDS011;37474;59.468;18.040;2023-08-06T00:18:46;10.63;;;6.23;;
50379;SDS011;37474;59.468;18.040;2023-08-06T00:21:14;8.80;;;5.60;;
50379;SDS011;37474;59.468;18.040;2023-08-06T00:23:43;9.33;;;5.33;;
50379;SDS011;37474;59.468;18.040;2023-08-06T00:26:12;9.43;;;5.57;;
50379;SDS011;37474;59.468;18.040;2023-08-06T00:28:41;12.43;;;5.70;;
50379;SDS011;37474;59.468;18.040;2023-08-06T00:31:10;8.57;;;4.95;;
50379;SDS011;37474;59.468;18.040;2023-08-06T00:33:38;10.60;;;5.27;;
50379;SDS011;37474;59.468;18.040;2023-08-06T00:36:07;7.57;;;4.97;;
50379;SDS011;37474;59.468;18.040;2023-08-06T00:38:35;12.00;;;5.80;;
50379;SDS011;37474;59.468;18.040;2023-08-06T00:41:04;13.60;;;5.43;;
50379;SDS011;37474;59.468;18.040;2023-08-06T00:43:32;9.77;;;5.87;;
50379;SDS011;37474;59.468;18.040;2023-08-06T00:46:02;14.37;;;6.27;;
50379;SDS011;37474;59.468;18.040;2023-08-06T00:48:31;9.70;;;5.70;;
50379;SDS011;37474;59.468;18.040;2023-08-06T00:51:00;13.67;;;5.93;;
50379;SDS011;37474;59.468;18.040;2023-08-06T00:53:29;17.13;;;5.90;;
50379;SDS011;37474;59.468;18.040;2023-08-06T00:55:58;9.93;;;5.50;;
50379;SDS011;37474;59.468;18.040;2023-08-06T00:58:27;10.50;;;5.43;;
50379;SDS011;37474;59.468;18.040;2023-08-06T01:00:55;14.40;;;5.10;;
50379;SDS011;37474;59.468;18.040;2023-08-06T01:03:25;14.47;;;5.50;;
50379;SDS011;37474;59.468;18.040;2023-08-06T01:05:54;13.02;;;5.55;;
50379;SDS011;37474;59.468;18.040;2023-08-06T01:08:27;8.50;;;5.50;;
50379;SDS011;37474;59.468;18.040;2023-08-06T01:11:13;14.93;;;6.03;;
50379;SDS011;37474;59.468;18.040;2023-08-06T01:13:50;13.23;;;5.30;;
50379;SDS011;37474;59.468;18.040;2023-08-06T01:16:22;8.87;;;5.40;;
50379;SDS011;37474;59.468;18.040;2023-08-06T01:18:53;7.78;;;5.95;;
50379;SDS011;37474;59.468;18.040;2023-08-06T01:21:23;13.32;;;6.43;;
50379;SDS011;37474;59.468;18.040;2023-08-06T01:23:52;10.05;;;5.85;;
50379;SDS011;37474;59.468;18.040;2023-08-06T01:26:22;10.97;;;5.73;;
50379;SDS011;37474;59.468;18.040;2023-08-06T01:28:56;10.23;;;5.80;;
50379;SDS011;37474;59.468;18.040;2023-08-06T01:31:32;13.30;;;6.17;;
50379;SDS011;37474;59.468;18.040;2023-08-06T01:34:07;14.30;;;6.13;;
50379;SDS011;37474;59.468;18.040;2023-08-06T01:36:40;13.17;;;6.53;;
50379;SDS011;37474;59.468;18.040;2023-08-06T01:39:09;12.30;;;6.53;;
50379;SDS011;37474;59.468;18.040;2023-08-06T01:41:38;15.83;;;7.90;;
50379;SDS011;37474;59.468;18.040;2023-08-06T01:44:06;10.30;;;6.20;;
50379;SDS011;37474;59.468;18.040;2023-08-06T01:46:35;11.07;;;6.13;;
50379;SDS011;37474;59.468;18.040;2023-08-06T01:49:03;11.33;;;6.10;;
50379;SDS011;37474;59.468;18.040;2023-08-06T01:51:32;10.33;;;6.17;;
50379;SDS011;37474;59.468;18.040;2023-08-06T01:54:02;10.00;;;6.20;;
50379;SDS011;37474;59.468;18.040;2023-08-06T01:56:31;12.60;;;5.95;;
50379;SDS011;37474;59.468;18.040;2023-08-06T01:58:59;9.20;;;5.80;;
50379;SDS011;37474;59.468;18.040;2023-08-06T02:01:30;8.20;;;5.30;;
50379;SDS011;37474;59.468;18.040;2023-08-06T02:03:59;8.63;;;5.53;;
50379;SDS011;37474;59.468;18.040;2023-08-06T02:06:28;10.93;;;6.17;;
50379;SDS011;37474;59.468;18.040;2023-08-06T02:08:57;14.03;;;6.00;;
50379;SDS011;37474;59.468;18.040;2023-08-06T02:11:26;12.97;;;6.70;;
50379;SDS011;37474;59.468;18.040;2023-08-06T02:13:55;11.20;;;6.60;;
50379;SDS011;37474;59.468;18.040;2023-08-06T02:16:24;13.47;;;6.80;;
50379;SDS011;37474;59.468;18.040;2023-08-06T02:18:52;11.30;;;6.57;;
50379;SDS011;37474;59.468;18.040;2023-08-06T02:21:21;12.00;;;6.10;;
50379;SDS011;37474;59.468;18.040;2023-08-06T02:23:49;12.20;;;5.83;;
50379;SDS011;37474;59.468;18.040;2023-08-06T02:26:18;11.13;;;6.20;;
50379;SDS011;37474;59.468;18.040;2023-08-06T02:28:48;11.87;;;6.40;;
50379;SDS011;37474;59.468;18.040;2023-08-06T02:31:16;8.32;;;5.57;;
50379;SDS011;37474;59.468;18.040;2023-08-06T02:33:45;10.13;;;6.00;;
50379;SDS011;37474;59.468;18.040;2023-08-06T02:36:13;11.07;;;6.57;;
50379;SDS011;37474;59.468;18.040;2023-08-06T02:38:42;14.37;;;7.30;;
50379;SDS011;37474;59.468;18.040;2023-08-06T02:41:11;13.57;;;6.73;;
50379;SDS011;37474;59.468;18.040;2023-08-06T02:43:39;15.40;;;6.80;;
50379;SDS011;37474;59.468;18.040;2023-08-06T02:46:09;11.17;;;6.30;;
50379;SDS011;37474;59.468;18.040;2023-08-06T02:48:38;10.60;;;6.20;;
50379;SDS011;37474;59.468;18.040;2023-08-06T02:51:06;9.93;;;5.60;;
50379;SDS011;37474;59.468;18.040;2023-08-06T02:53:35;10.20;;;6.23;;
50379;SDS011;37474;59.468;18.040;2023-08-06T02:56:03;11.10;;;5.40;;
50379;SDS011;37474;59.468;18.040;2023-08-06T02:58:32;9.20;;;5.63;;
50379;SDS011;37474;59.468;18.040;2023-08-06T03:01:02;10.77;;;5.87;;
50379;SDS011;37474;59.468;18.040;2023-08-06T03:03:33;11.17;;;5.70;;
50379;SDS011;37474;59.468;18.040;2023-08-06T03:06:02;9.80;;;5.30;;
50379;SDS011;37474;59.468;18.040;2023-08-06T03:08:31;9.03;;;5.80;;
50379;SDS011;37474;59.468;18.040;2023-08-06T03:10:59;9.97;;;5.70;;
50379;SDS011;37474;59.468;18.040;2023-08-06T03:13:28;10.27;;;5.63;;
50379;SDS011;37474;59.468;18.040;2023-08-06T03:15:57;11.90;;;6.50;;
50379;SDS011;37474;59.468;18.040;2023-08-06T03:18:27;11.77;;;6.20;;
50379;SDS011;37474;59.468;18.040;2023-08-06T03:20:57;10.87;;;5.93;;
50379;SDS011;37474;59.468;18.040;2023-08-06T03:23:26;14.75;;;6.07;;
50379;SDS011;37474;59.468;18.040;2023-08-06T03:25:54;11.87;;;5.60;;
50379;SDS011;37474;59.468;18.040;2023-08-06T03:28:23;10.73;;;5.83;;
50379;SDS011;37474;59.468;18.040;2023-08-06T03:30:58;11.03;;;6.47;;
50379;SDS011;37474;59.468;18.040;2023-08-06T03:33:28;9.17;;;5.43;;
50379;SDS011;37474;59.468;18.040;2023-08-06T03:35:58;10.07;;;5.27;;
50379;SDS011;37474;59.468;18.040;2023-08-06T03:38:26;8.32;;;5.70;;
50379;SDS011;37474;59.468;18.040;2023-08-06T03:40:55;10.47;;;5.60;;
50379;SDS011;37474;59.468;18.040;2023-08-06T03:43:24;8.23;;;5.30;;
50379;SDS011;37474;59.468;18.040;2023-08-06T03:45:52;7.27;;;5.27;;
50379;SDS011;37474;59.468;18.040;2023-08-06T03:48:21;9.03;;;5.50;;
50379;SDS011;37474;59.468;18.040;2023-08-06T03:50:49;9.33;;;5.60;;
50379;SDS011;37474;59.468;18.040;2023-08-06T03:53:19;8.33;;;5.80;;
50379;SDS011;37474;59.468;18.040;2023-08-06T03:55:48;8.90;;;5.45;;
50379;SDS011;37474;59.468;18.040;2023-08-06T03:58:16;10.37;;;5.87;;
50379;SDS011;37474;59.468;18.040;2023-08-06T04:00:45;8.73;;;6.00;;
50379;SDS011;37474;59.468;18.040;2023-08-06T04:03:13;9.90;;;5.50;;
50379;SDS011;37474;59.468;18.040;2023-08-06T04:05:42;7.27;;;4.67;;
50379;SDS011;37474;59.468;18.040;2023-08-06T04:08:11;9.33;;;5.47;;
50379;SDS011;37474;59.468;18.040;2023-08-06T04:10:41;9.07;;;5.30;;
50379;SDS011;37474;59.468;18.040;2023-08-06T04:13:09;6.65;;;4.95;;
50379;SDS011;37474;59.468;18.040;2023-08-06T04:15:37;10.73;;;4.93;;
50379;SDS011;37474;59.468;18.040;2023-08-06T04:18:06;8.17;;;4.97;;
50379;SDS011;37474;59.468;18.040;2023-08-06T04:20:35;10.27;;;5.23;;
50379;SDS011;37474;59.468;18.040;2023-08-06T04:23:11;8.17;;;4.70;;
50379;SDS011;37474;59.468;18.040;2023-08-06T04:25:41;10.47;;;5.10;;
50379;SDS011;37474;59.468;18.040;2023-08-06T04:28:10;9.23;;;4.70;;
50379;SDS011;37474;59.468;18.040;2023-08-06T04:30:38;7.83;;;4.37;;
50379;SDS011;37474;59.468;18.040;2023-08-06T04:33:07;5.93;;;4.20;;
50379;SDS011;37474;59.468;18.040;2023-08-06T04:35:35;9.20;;;4.93;;
50379;SDS011;37474;59.468;18.040;2023-08-06T04:38:04;8.40;;;4.40;;
50379;SDS011;37474;59.468;18.040;2023-08-06T04:40:33;7.10;;;4.70;;
50379;SDS011;37474;59.468;18.040;2023-08-06T04:43:03;7.23;;;4.60;;
50379;SDS011;37474;59.468;18.040;2023-08-06T04:45:31;9.05;;;4.60;;
50379;SDS011;37474;59.468;18.040;2023-08-06T04:48:00;7.13;;;4.20;;
50379;SDS011;37474;59.468;18.040;2023-08-06T04:50:28;8.13;;;4.77;;
50379;SDS011;37474;59.468;18.040;2023-08-06T04:52:57;8.63;;;4.57;;
50379;SDS011;37474;59.468;18.040;2023-08-06T04:55:25;10.70;;;4.83;;
50379;SDS011;37474;59.468;18.040;2023-08-06T04:57:54;7.47;;;4.47;;
50379;SDS011;37474;59.468;18.040;2023-08-06T05:00:24;7.63;;;4.60;;
50379;SDS011;37474;59.468;18.040;2023-08-06T05:02:52;7.25;;;4.72;;
50379;SDS011;37474;59.468;18.040;2023-08-06T05:05:21;7.40;;;5.10;;
50379;SDS011;37474;59.468;18.040;2023-08-06T05:07:49;10.68;;;5.07;;
50379;SDS011;37474;59.468;18.040;2023-08-06T05:10:18;6.43;;;4.57;;
50379;SDS011;37474;59.468;18.040;2023-08-06T05:12:46;7.80;;;4.18;;
50379;SDS011;37474;59.468;18.040;2023-08-06T05:15:15;8.00;;;4.25;;
50379;SDS011;37474;59.468;18.040;2023-08-06T05:17:45;7.28;;;4.30;;
50379;SDS011;37474;59.468;18.040;2023-08-06T05:20:14;7.80;;;4.72;;
50379;SDS011;37474;59.468;18.040;2023-08-06T05:22:43;6.97;;;4.05;;
50379;SDS011;37474;59.468;18.040;2023-08-06T05:25:12;7.80;;;3.78;;
50379;SDS011;37474;59.468;18.040;2023-08-06T05:27:41;7.80;;;3.80;;
50379;SDS011;37474;59.468;18.040;2023-08-06T05:30:10;8.07;;;4.10;;
50379;SDS011;37474;59.468;18.040;2023-08-06T05:32:39;6.50;;;3.63;;
50379;SDS011;37474;59.468;18.040;2023-08-06T05:35:09;7.57;;;3.60;;
50379;SDS011;37474;59.468;18.040;2023-08-06T05:37:37;5.43;;;3.10;;
50379;SDS011;37474;59.468;18.040;2023-08-06T05:40:06;6.72;;;3.55;;
50379;SDS011;37474;59.468;18.040;2023-08-06T05:42:35;5.70;;;3.30;;
50379;SDS011;37474;59.468;18.040;2023-08-06T05:45:04;6.55;;;3.63;;
50379;SDS011;37474;59.468;18.040;2023-08-06T05:47:33;7.17;;;3.60;;
50379;SDS011;37474;59.468;18.040;2023-08-06T05:50:02;6.75;;;3.80;;
50379;SDS011;37474;59.468;18.040;2023-08-06T05:52:32;5.25;;;2.88;;
50379;SDS011;37474;59.468;18.040;2023-08-06T05:55:01;6.30;;;3.10;;
50379;SDS011;37474;59.468;18.040;2023-08-06T05:57:29;7.22;;;3.20;;
50379;SDS011;37474;59.468;18.040;2023-08-06T05:59:58;5.68;;;2.90;;
50379;SDS011;37474;59.468;18.040;2023-08-06T06:02:26;7.18;;;3.30;;
50379;SDS011;37474;59.468;18.040;2023-08-06T06:04:55;5.90;;;2.70;;
50379;SDS011;37474;59.468;18.040;2023-08-06T06:07:23;5.20;;;2.92;;
50379;SDS011;37474;59.468;18.040;2023-08-06T06:09:53;6.30;;;2.80;;
50379;SDS011;37474;59.468;18.040;2023-08-06T06:12:21;4.82;;;2.95;;
50379;SDS011;37474;59.468;18.040;2023-08-06T06:14:52;5.60;;;2.58;;
50379;SDS011;37474;59.468;18.040;2023-08-06T06:17:21;7.75;;;3.00;;
50379;SDS011;37474;59.468;18.040;2023-08-06T06:19:49;4.60;;;2.95;;
50379;SDS011;37474;59.468;18.040;2023-08-06T06:22:18;6.88;;;3.13;;
50379;SDS011;37474;59.468;18.040;2023-08-06T06:24:48;7.40;;;2.90;;
50379;SDS011;37474;59.468;18.040;2023-08-06T06:27:18;8.50;;;2.90;;
50379;SDS011;37474;59.468;18.040;2023-08-06T06:29:47;7.25;;;2.85;;
50379;SDS011;37474;59.468;18.040;2023-08-06T06:32:15;3.90;;;2.35;;
50379;SDS011;37474;59.468;18.040;2023-08-06T06:34:44;3.58;;;2.55;;
50379;SDS011;37474;59.468;18.040;2023-08-06T06:37:12;4.35;;;2.72;;
50379;SDS011;37474;59.468;18.040;2023-08-06T06:39:41;5.68;;;2.40;;
50379;SDS011;37474;59.468;18.040;2023-08-06T06:42:10;5.25;;;2.13;;
50379;SDS011;37474;59.468;18.040;2023-08-06T06:44:40;4.63;;;2.22;;
50379;SDS011;37474;59.468;18.040;2023-08-06T06:47:09;6.65;;;2.38;;
50379;SDS011;37474;59.468;18.040;2023-08-06T06:49:37;5.30;;;2.20;;
50379;SDS011;37474;59.468;18.040;2023-08-06T06:52:06;5.60;;;2.00;;
50379;SDS011;37474;59.468;18.040;2023-08-06T06:54:35;4.65;;;1.95;;
50379;SDS011;37474;59.468;18.040;2023-08-06T06:57:04;5.55;;;1.80;;
50379;SDS011;37474;59.468;18.040;2023-08-06T06:59:33;2.60;;;1.88;;
50379;SDS011;37474;59.468;18.040;2023-08-06T07:02:03;3.33;;;1.85;;
50379;SDS011;37474;59.468;18.040;2023-08-06T07:04:32;7.03;;;2.20;;
50379;SDS011;37474;59.468;18.040;2023-08-06T07:07:00;7.93;;;2.67;;
50379;SDS011;37474;59.468;18.040;2023-08-06T07:09:29;3.95;;;2.05;;
50379;SDS011;37474;59.468;18.040;2023-08-06T07:11:57;3.97;;;2.30;;
50379;SDS011;37474;59.468;18.040;2023-08-06T07:14:26;4.43;;;2.13;;
50379;SDS011;37474;59.468;18.040;2023-08-06T07:16:55;4.32;;;2.33;;
50379;SDS011;37474;59.468;18.040;2023-08-06T07:19:25;6.05;;;2.20;;
50379;SDS011;37474;59.468;18.040;2023-08-06T07:21:53;7.72;;;2.72;;
50379;SDS011;37474;59.468;18.040;2023-08-06T07:24:22;3.65;;;2.17;;
50379;SDS011;37474;59.468;18.040;2023-08-06T07:26:51;3.78;;;2.00;;
50379;SDS011;37474;59.468;18.040;2023-08-06T07:29:20;4.82;;;2.33;;
50379;SDS011;37474;59.468;18.040;2023-08-06T07:31:49;4.47;;;2.10;;
50379;SDS011;37474;59.468;18.040;2023-08-06T07:34:18;2.97;;;2.08;;
50379;SDS011;37474;59.468;18.040;2023-08-06T07:36:48;5.47;;;2.22;;
50379;SDS011;37474;59.468;18.040;2023-08-06T07:39:16;4.50;;;2.40;;
50379;SDS011;37474;59.468;18.040;2023-08-06T07:41:45;5.28;;;2.20;;
50379;SDS011;37474;59.468;18.040;2023-08-06T07:44:13;3.67;;;1.98;;
50379;SDS011;37474;59.468;18.040;2023-08-06T07:46:42;4.35;;;2.17;;
50379;SDS011;37474;59.468;18.040;2023-08-06T07:49:10;3.35;;;1.75;;
50379;SDS011;37474;59.468;18.040;2023-08-06T07:51:39;3.42;;;1.73;;
50379;SDS011;37474;59.468;18.040;2023-08-06T07:54:09;2.47;;;1.67;;
50379;SDS011;37474;59.468;18.040;2023-08-06T07:56:37;4.35;;;1.83;;
50379;SDS011;37474;59.468;18.040;2023-08-06T07:59:06;4.93;;;1.95;;
50379;SDS011;37474;59.468;18.040;2023-08-06T08:01:35;4.82;;;1.83;;
50379;SDS011;37474;59.468;18.040;2023-08-06T08:04:04;3.90;;;1.90;;
50379;SDS011;37474;59.468;18.040;2023-08-06T08:06:33;4.10;;;1.83;;
50379;SDS011;37474;59.468;18.040;2023-08-06T08:09:02;3.88;;;1.80;;
50379;SDS011;37474;59.468;18.040;2023-08-06T08:11:32;5.63;;;2.13;;
50379;SDS011;37474;59.468;18.040;2023-08-06T08:14:00;3.92;;;2.00;;
50379;SDS011;37474;59.468;18.040;2023-08-06T08:16:29;3.95;;;2.15;;
50379;SDS011;37474;59.468;18.040;2023-08-06T08:18:58;3.08;;;1.85;;
50379;SDS011;37474;59.468;18.040;2023-08-06T08:21:26;4.90;;;1.92;;
50379;SDS011;37474;59.468;18.040;2023-08-06T08:23:55;3.80;;;1.65;;
50379;SDS011;37474;59.468;18.040;2023-08-06T08:26:23;5.70;;;2.15;;
50379;SDS011;37474;59.468;18.040;2023-08-06T08:28:55;4.05;;;1.83;;
50379;SDS011;37474;59.468;18.040;2023-08-06T08:31:24;5.57;;;2.25;;
50379;SDS011;37474;59.468;18.040;2023-08-06T08:33:53;7.13;;;2.35;;
50379;SDS011;37474;59.468;18.040;2023-08-06T08:36:24;5.30;;;2.28;;
50379;SDS011;37474;59.468;18.040;2023-08-06T08:38:53;3.13;;;1.85;;
50379;SDS011;37474;59.468;18.040;2023-08-06T08:41:22;5.55;;;2.08;;
50379;SDS011;37474;59.468;18.040;2023-08-06T08:43:51;6.90;;;2.13;;
50379;SDS011;37474;59.468;18.040;2023-08-06T08:46:22;5.68;;;1.98;;
50379;SDS011;37474;59.468;18.040;2023-08-06T08:48:52;7.82;;;2.20;;
50379;SDS011;37474;59.468;18.040;2023-08-06T08:51:22;6.20;;;2.20;;
50379;SDS011;37474;59.468;18.040;2023-08-06T08:53:51;5.00;;;2.35;;
50379;SDS011;37474;59.468;18.040;2023-08-06T08:56:22;5.90;;;1.88;;
50379;SDS011;37474;59.468;18.040;2023-08-06T08:58:51;7.80;;;2.20;;
50379;SDS011;37474;59.468;18.040;2023-08-06T09:03:52;5.40;;;1.85;;
50379;SDS011;37474;59.468;18.040;2023-08-06T09:08:56;5.63;;;2.13;;
50379;SDS011;37474;59.468;18.040;2023-08-06T09:11:29;6.60;;;2.05;;
50379;SDS011;37474;59.468;18.040;2023-08-06T09:14:06;3.67;;;1.80;;
50379;SDS011;37474;59.468;18.040;2023-08-06T09:16:36;5.88;;;2.20;;
50379;SDS011;37474;59.468;18.040;2023-08-06T09:19:06;5.28;;;1.83;;
50379;SDS011;37474;59.468;18.040;2023-08-06T09:21:38;4.35;;;1.83;;
50379;SDS011;37474;59.468;18.040;2023-08-06T09:24:08;5.13;;;1.98;;
50379;SDS011;37474;59.468;18.040;2023-08-06T09:26:37;6.47;;;1.98;;
50379;SDS011;37474;59.468;18.040;2023-08-06T09:29:08;5.55;;;2.20;;
50379;SDS011;37474;59.468;18.040;2023-08-06T09:31:43;5.57;;;2.25;;
50379;SDS011;37474;59.468;18.040;2023-08-06T09:34:14;5.22;;;1.90;;
50379;SDS011;37474;59.468;18.040;2023-08-06T09:36:46;6.35;;;2.42;;
50379;SDS011;37474;59.468;18.040;2023-08-06T09:39:15;6.70;;;2.25;;
50379;SDS011;37474;59.468;18.040;2023-08-06T09:41:45;4.30;;;1.92;;
50379;SDS011;37474;59.468;18.040;2023-08-06T09:44:15;5.32;;;2.00;;
50379;SDS011;37474;59.468;18.040;2023-08-06T09:49:19;5.53;;;2.17;;
50379;SDS011;37474;59.468;18.040;2023-08-06T09:51:50;5.30;;;2.08;;
50379;SDS011;37474;59.468;18.040;2023-08-06T09:54:23;4.35;;;2.30;;
50379;SDS011;37474;59.468;18.040;2023-08-06T09:56:54;10.05;;;2.40;;
50379;SDS011;37474;59.468;18.040;2023-08-06T09:59:23;6.10;;;2.10;;
50379;SDS011;37474;59.468;18.040;2023-08-06T10:01:53;7.60;;;2.63;;
50379;SDS011;37474;59.468;18.040;2023-08-06T10:04:23;6.07;;;2.00;;
50379;SDS011;37474;59.468;18.040;2023-08-06T10:07:03;5.20;;;2.10;;
50379;SDS011;37474;59.468;18.040;2023-08-06T10:09:33;4.37;;;2.00;;
50379;SDS011;37474;59.468;18.040;2023-08-06T10:12:01;5.03;;;1.90;;
50379;SDS011;37474;59.468;18.040;2023-08-06T10:14:32;5.53;;;2.15;;
50379;SDS011;37474;59.468;18.040;2023-08-06T10:17:05;6.10;;;2.22;;
50379;SDS011;37474;59.468;18.040;2023-08-06T10:19:34;4.53;;;1.90;;
50379;SDS011;37474;59.468;18.040;2023-08-06T10:22:09;5.07;;;2.22;;
50379;SDS011;37474;59.468;18.040;2023-08-06T10:24:48;5.25;;;2.03;;
50379;SDS011;37474;59.468;18.040;2023-08-06T10:27:22;4.20;;;2.27;;
50379;SDS011;37474;59.468;18.040;2023-08-06T10:29:55;3.20;;;1.92;;
50379;SDS011;37474;59.468;18.040;2023-08-06T10:35:33;5.93;;;2.15;;
50379;SDS011;37474;59.468;18.040;2023-08-06T10:38:04;5.65;;;2.08;;
50379;SDS011;37474;59.468;18.040;2023-08-06T10:40:33;6.00;;;2.15;;
50379;SDS011;37474;59.468;18.040;2023-08-06T10:43:02;7.18;;;2.50;;
50379;SDS011;37474;59.468;18.040;2023-08-06T10:45:34;5.75;;;2.20;;
50379;SDS011;37474;59.468;18.040;2023-08-06T10:48:04;6.18;;;2.30;;
50379;SDS011;37474;59.468;18.040;2023-08-06T10:50:33;5.60;;;2.28;;
50379;SDS011;37474;59.468;18.040;2023-08-06T10:53:05;8.88;;;2.70;;
50379;SDS011;37474;59.468;18.040;2023-08-06T10:55:35;5.72;;;2.45;;
50379;SDS011;37474;59.468;18.040;2023-08-06T10:58:05;6.05;;;2.58;;
50379;SDS011;37474;59.468;18.040;2023-08-06T11:00:33;5.95;;;2.40;;
50379;SDS011;37474;59.468;18.040;2023-08-06T11:03:04;8.30;;;2.93;;
50379;SDS011;37474;59.468;18.040;2023-08-06T11:05:33;5.75;;;2.38;;
50379;SDS011;37474;59.468;18.040;2023-08-06T11:08:01;5.95;;;2.83;;
50379;SDS011;37474;59.468;18.040;2023-08-06T11:10:32;6.32;;;2.75;;
50379;SDS011;37474;59.468;18.040;2023-08-06T11:13:01;7.18;;;2.60;;
50379;SDS011;37474;59.468;18.040;2023-08-06T11:15:30;7.40;;;2.85;;
50379;SDS011;37474;59.468;18.040;2023-08-06T11:17:59;6.53;;;2.42;;
50379;SDS011;37474;59.468;18.040;2023-08-06T11:22:59;6.60;;;2.35;;
50379;SDS011;37474;59.468;18.040;2023-08-06T11:25:28;6.80;;;2.90;;
50379;SDS011;37474;59.468;18.040;2023-08-06T11:27:57;9.57;;;2.75;;
50379;SDS011;37474;59.468;18.040;2023-08-06T11:30:26;7.95;;;2.63;;
50379;SDS011;37474;59.468;18.040;2023-08-06T11:32:56;7.68;;;2.90;;
50379;SDS011;37474;59.468;18.040;2023-08-06T11:35:25;8.25;;;3.50;;
50379;SDS011;37474;59.468;18.040;2023-08-06T11:37:55;7.80;;;3.25;;
50379;SDS011;37474;59.468;18.040;2023-08-06T11:40:24;10.55;;;3.33;;
50379;SDS011;37474;59.468;18.040;2023-08-06T11:42:52;13.52;;;3.85;;
50379;SDS011;37474;59.468;18.040;2023-08-06T11:45:21;6.20;;;3.22;;
50379;SDS011;37474;59.468;18.040;2023-08-06T11:47:51;7.43;;;3.63;;
50379;SDS011;37474;59.468;18.040;2023-08-06T11:50:23;8.07;;;3.30;;
50379;SDS011;37474;59.468;18.040;2023-08-06T11:52:57;6.55;;;3.65;;
50379;SDS011;37474;59.468;18.040;2023-08-06T11:55:28;11.60;;;3.80;;
50379;SDS011;37474;59.468;18.040;2023-08-06T11:57:57;5.30;;;3.28;;
50379;SDS011;37474;59.468;18.040;2023-08-06T12:00:26;7.60;;;3.70;;
50379;SDS011;37474;59.468;18.040;2023-08-06T12:02:54;10.32;;;4.50;;
50379;SDS011;37474;59.468;18.040;2023-08-06T12:05:28;9.43;;;4.63;;
50379;SDS011;37474;59.468;18.040;2023-08-06T12:08:02;9.30;;;4.07;;
50379;SDS011;37474;59.468;18.040;2023-08-06T12:10:31;10.38;;;4.57;;
50379;SDS011;37474;59.468;18.040;2023-08-06T12:13:00;10.00;;;4.63;;
50379;SDS011;37474;59.468;18.040;2023-08-06T12:15:29;10.60;;;4.82;;
50379;SDS011;37474;59.468;18.040;2023-08-06T12:17:59;9.88;;;4.80;;
50379;SDS011;37474;59.468;18.040;2023-08-06T12:20:28;13.82;;;6.15;;
50379;SDS011;37474;59.468;18.040;2023-08-06T12:22:56;11.38;;;5.65;;
50379;SDS011;37474;59.468;18.040;2023-08-06T12:25:26;8.70;;;5.40;;
50379;SDS011;37474;59.468;18.040;2023-08-06T12:27:55;10.85;;;5.75;;
50379;SDS011;37474;59.468;18.040;2023-08-06T12:30:24;9.57;;;5.72;;
50379;SDS011;37474;59.468;18.040;2023-08-06T12:32:53;10.32;;;5.97;;
50379;SDS011;37474;59.468;18.040;2023-08-06T12:35:21;8.70;;;5.93;;
50379;SDS011;37474;59.468;18.040;2023-08-06T12:37:52;10.70;;;6.57;;
50379;SDS011;37474;59.468;18.040;2023-08-06T12:40:21;12.50;;;6.82;;
50379;SDS011;37474;59.468;18.040;2023-08-06T12:43:03;11.32;;;6.63;;
50379;SDS011;37474;59.468;18.040;2023-08-06T12:45:32;11.05;;;6.68;;
50379;SDS011;37474;59.468;18.040;2023-08-06T12:48:01;11.93;;;6.78;;
50379;SDS011;37474;59.468;18.040;2023-08-06T12:50:30;15.45;;;6.65;;
50379;SDS011;37474;59.468;18.040;2023-08-06T12:52:59;12.65;;;7.45;;
50379;SDS011;37474;59.468;18.040;2023-08-06T12:55:29;13.40;;;6.93;;
50379;SDS011;37474;59.468;18.040;2023-08-06T12:57:59;12.75;;;7.10;;
50379;SDS011;37474;59.468;18.040;2023-08-06T13:00:29;12.45;;;7.15;;
50379;SDS011;37474;59.468;18.040;2023-08-06T13:02:57;14.13;;;7.18;;
50379;SDS011;37474;59.468;18.040;2023-08-06T13:05:26;10.77;;;6.93;;
50379;SDS011;37474;59.468;18.040;2023-08-06T13:07:55;12.57;;;7.30;;
50379;SDS011;37474;59.468;18.040;2023-08-06T13:10:24;14.23;;;7.07;;
50379;SDS011;37474;59.468;18.040;2023-08-06T13:12:54;10.18;;;6.97;;
50379;SDS011;37474;59.468;18.040;2023-08-06T13:15:23;15.98;;;7.38;;
50379;SDS011;37474;59.468;18.040;2023-08-06T13:17:53;14.85;;;7.22;;
50379;SDS011;37474;59.468;18.040;2023-08-06T13:20:22;12.13;;;7.25;;
50379;SDS011;37474;59.468;18.040;2023-08-06T13:22:50;8.63;;;6.72;;
50379;SDS011;37474;59.468;18.040;2023-08-06T13:25:20;10.68;;;7.03;;
50379;SDS011;37474;59.468;18.040;2023-08-06T13:27:50;12.00;;;6.97;;
50379;SDS011;37474;59.468;18.040;2023-08-06T13:30:18;10.32;;;7.13;;
50379;SDS011;37474;59.468;18.040;2023-08-06T13:32:47;14.13;;;7.20;;
50379;SDS011;37474;59.468;18.040;2023-08-06T13:35:17;10.82;;;6.82;;
50379;SDS011;37474;59.468;18.040;2023-08-06T13:37:45;12.25;;;7.05;;
50379;SDS011;37474;59.468;18.040;2023-08-06T13:40:14;12.35;;;7.10;;
50379;SDS011;37474;59.468;18.040;2023-08-06T13:42:43;13.57;;;8.07;;
50379;SDS011;37474;59.468;18.040;2023-08-06T13:45:12;12.32;;;7.93;;
50379;SDS011;37474;59.468;18.040;2023-08-06T13:47:41;15.05;;;7.53;;
50379;SDS011;37474;59.468;18.040;2023-08-06T13:50:09;10.50;;;7.28;;
50379;SDS011;37474;59.468;18.040;2023-08-06T13:52:40;11.93;;;7.93;;
50379;SDS011;37474;59.468;18.040;2023-08-06T13:55:08;13.95;;;7.65;;
50379;SDS011;37474;59.468;18.040;2023-08-06T13:57:37;15.00;;;8.43;;
50379;SDS011;37474;59.468;18.040;2023-08-06T14:00:06;13.35;;;7.90;;
50379;SDS011;37474;59.468;18.040;2023-08-06T14:02:35;11.00;;;7.95;;
50379;SDS011;37474;59.468;18.040;2023-08-06T14:05:05;14.15;;;7.57;;
50379;SDS011;37474;59.468;18.040;2023-08-06T14:07:55;11.02;;;7.25;;
50379;SDS011;37474;59.468;18.040;2023-08-06T14:10:24;12.45;;;8.02;;
50379;SDS011;37474;59.468;18.040;2023-08-06T14:12:53;12.30;;;7.32;;
50379;SDS011;37474;59.468;18.040;2023-08-06T14:15:36;10.70;;;7.40;;
50379;SDS011;37474;59.468;18.040;2023-08-06T14:18:06;13.18;;;8.20;;
50379;SDS011;37474;59.468;18.040;2023-08-06T14:20:36;10.93;;;6.78;;
50379;SDS011;37474;59.468;18.040;2023-08-06T14:23:06;12.30;;;6.97;;
50379;SDS011;37474;59.468;18.040;2023-08-06T14:25:35;10.82;;;7.28;;
50379;SDS011;37474;59.468;18.040;2023-08-06T14:28:03;11.23;;;6.72;;
50379;SDS011;37474;59.468;18.040;2023-08-06T14:30:33;13.27;;;6.85;;
50379;SDS011;37474;59.468;18.040;2023-08-06T14:33:02;9.80;;;7.00;;
50379;SDS011;37474;59.468;18.040;2023-08-06T14:35:46;12.35;;;6.82;;
50379;SDS011;37474;59.468;18.040;2023-08-06T14:38:18;9.65;;;6.82;;
50379;SDS011;37474;59.468;18.040;2023-08-06T14:40:49;11.02;;;6.72;;
50379;SDS011;37474;59.468;18.040;2023-08-06T14:43:17;10.48;;;6.47;;
50379;SDS011;37474;59.468;18.040;2023-08-06T14:45:46;9.88;;;6.40;;
50379;SDS011;37474;59.468;18.040;2023-08-06T14:48:15;9.68;;;6.63;;
50379;SDS011;37474;59.468;18.040;2023-08-06T14:50:43;10.25;;;6.70;;
50379;SDS011;37474;59.468;18.040;2023-08-06T14:53:12;9.20;;;6.30;;
50379;SDS011;37474;59.468;18.040;2023-08-06T14:55:43;10.02;;;6.78;;
50379;SDS011;37474;59.468;18.040;2023-08-06T14:58:11;8.50;;;6.53;;